sensor_id;sensor_type;location;lat;lon;timestamp;P1;durP1;ratioP1;P2;durP2;ratioP2
31808;SDS011;18379;48.208;-1.518;2024-02-15T00:01:01;20.70;;;19.10;;
31808;SDS011;18379;48.208;-1.518;2024-02-15T00:06:02;20.77;;;19.27;;
31808;SDS011;18379;48.208;-1.518;2024-02-15T00:11:03;21.03;;;19.27;;
31808;SDS011;18379;48.208;-1.518;2024-02-15T00:16:04;21.00;;;19.50;;
31808;SDS011;18379;48.208;-1.518;2024-02-15T00:21:05;20.90;;;19.40;;
31808;SDS011;18379;48.208;-1.518;2024-02-15T00:26:06;21.23;;;19.53;;
31808;SDS011;18379;48.208;-1.518;2024-02-15T00:31:07;20.50;;;18.90;;
31808;SDS011;18379;48.208;-1.518;2024-02-15T00:36:08;20.93;;;19.40;;
31808;SDS011;18379;48.208;-1.518;2024-02-15T00:41:10;21.33;;;19.63;;
31808;SDS011;18379;48.208;-1.518;2024-02-15T00:46:16;20.87;;;19.40;;
31808;SDS011;18379;48.208;-1.518;2024-02-15T00:51:17;20.73;;;19.27;;
31808;SDS011;18379;48.208;-1.518;2024-02-15T00:56:22;21.37;;;19.50;;
31808;SDS011;18379;48.208;-1.518;2024-02-15T01:01:27;22.33;;;20.27;;
31808;SDS011;18379;48.208;-1.518;2024-02-15T01:06:30;20.60;;;18.93;;
31808;SDS011;18379;48.208;-1.518;2024-02-15T01:11:32;20.60;;;19.00;;
31808;SDS011;18379;48.208;-1.518;2024-02-15T01:16:37;21.03;;;19.43;;
31808;SDS011;18379;48.208;-1.518;2024-02-15T01:21:38;20.13;;;18.73;;
31808;SDS011;18379;48.208;-1.518;2024-02-15T01:26:43;20.90;;;19.30;;
31808;SDS011;18379;48.208;-1.518;2024-02-15T01:31:44;21.53;;;19.70;;
31808;SDS011;18379;48.208;-1.518;2024-02-15T01:36:47;21.40;;;19.70;;
31808;SDS011;18379;48.208;-1.518;2024-02-15T01:41:51;21.30;;;19.83;;
31808;SDS011;18379;48.208;-1.518;2024-02-15T01:46:55;22.43;;;20.63;;
31808;SDS011;18379;48.208;-1.518;2024-02-15T01:51:57;21.90;;;20.13;;
31808;SDS011;18379;48.208;-1.518;2024-02-15T01:57:03;21.03;;;19.43;;
31808;SDS011;18379;48.208;-1.518;2024-02-15T02:02:04;21.23;;;19.73;;
31808;SDS011;18379;48.208;-1.518;2024-02-15T02:07:08;22.33;;;20.60;;
31808;SDS011;18379;48.208;-1.518;2024-02-15T02:12:09;21.90;;;20.10;;
31808;SDS011;18379;48.208;-1.518;2024-02-15T02:17:13;22.07;;;20.37;;
31808;SDS011;18379;48.208;-1.518;2024-02-15T02:22:14;21.97;;;20.27;;
31808;SDS011;18379;48.208;-1.518;2024-02-15T02:27:20;22.07;;;20.57;;
31808;SDS011;18379;48.208;-1.518;2024-02-15T02:32:23;22.33;;;20.70;;
31808;SDS011;18379;48.208;-1.518;2024-02-15T02:37:24;21.33;;;19.70;;
31808;SDS011;18379;48.208;-1.518;2024-02-15T02:42:28;21.40;;;19.80;;
31808;SDS011;18379;48.208;-1.518;2024-02-15T02:47:29;21.63;;;19.70;;
31808;SDS011;18379;48.208;-1.518;2024-02-15T02:52:33;21.40;;;19.77;;
31808;SDS011;18379;48.208;-1.518;2024-02-15T02:57:38;21.57;;;19.97;;
31808;SDS011;18379;48.208;-1.518;2024-02-15T03:02:39;21.40;;;19.53;;
31808;SDS011;18379;48.208;-1.518;2024-02-15T03:07:40;22.00;;;20.30;;
31808;SDS011;18379;48.208;-1.518;2024-02-15T03:12:41;21.53;;;19.90;;
31808;SDS011;18379;48.208;-1.518;2024-02-15T03:17:47;21.07;;;19.50;;
31808;SDS011;18379;48.208;-1.518;2024-02-15T03:22:55;21.20;;;19.50;;
31808;SDS011;18379;48.208;-1.518;2024-02-15T03:28:00;21.33;;;19.63;;
31808;SDS011;18379;48.208;-1.518;2024-02-15T03:33:04;21.10;;;19.43;;
31808;SDS011;18379;48.208;-1.518;2024-02-15T03:38:05;21.43;;;19.73;;
31808;SDS011;18379;48.208;-1.518;2024-02-15T03:43:07;21.47;;;19.87;;
31808;SDS011;18379;48.208;-1.518;2024-02-15T03:48:08;21.17;;;19.77;;
31808;SDS011;18379;48.208;-1.518;2024-02-15T03:53:10;21.33;;;19.57;;
31808;SDS011;18379;48.208;-1.518;2024-02-15T03:58:11;21.03;;;19.23;;
31808;SDS011;18379;48.208;-1.518;2024-02-15T04:03:15;21.10;;;19.57;;
31808;SDS011;18379;48.208;-1.518;2024-02-15T04:08:15;20.97;;;19.47;;
31808;SDS011;18379;48.208;-1.518;2024-02-15T04:13:20;21.27;;;19.67;;
31808;SDS011;18379;48.208;-1.518;2024-02-15T04:18:24;20.30;;;18.90;;
31808;SDS011;18379;48.208;-1.518;2024-02-15T04:23:25;20.40;;;18.90;;
31808;SDS011;18379;48.208;-1.518;2024-02-15T04:28:26;20.87;;;19.30;;
31808;SDS011;18379;48.208;-1.518;2024-02-15T04:33:28;21.03;;;19.23;;
31808;SDS011;18379;48.208;-1.518;2024-02-15T04:38:30;20.30;;;18.90;;
31808;SDS011;18379;48.208;-1.518;2024-02-15T04:43:31;20.43;;;18.83;;
31808;SDS011;18379;48.208;-1.518;2024-02-15T04:48:33;20.40;;;18.83;;
31808;SDS011;18379;48.208;-1.518;2024-02-15T04:53:34;20.20;;;18.80;;
31808;SDS011;18379;48.208;-1.518;2024-02-15T04:58:38;20.50;;;18.80;;
31808;SDS011;18379;48.208;-1.518;2024-02-15T05:03:45;29.17;;;26.13;;
31808;SDS011;18379;48.208;-1.518;2024-02-15T05:08:47;21.13;;;19.40;;
31808;SDS011;18379;48.208;-1.518;2024-02-15T05:13:48;20.23;;;18.83;;
31808;SDS011;18379;48.208;-1.518;2024-02-15T05:18:52;20.47;;;18.87;;
31808;SDS011;18379;48.208;-1.518;2024-02-15T05:23:53;20.50;;;19.13;;
31808;SDS011;18379;48.208;-1.518;2024-02-15T05:28:55;20.90;;;19.37;;
31808;SDS011;18379;48.208;-1.518;2024-02-15T05:33:56;20.50;;;19.00;;
31808;SDS011;18379;48.208;-1.518;2024-02-15T05:38:58;20.50;;;18.90;;
31808;SDS011;18379;48.208;-1.518;2024-02-15T05:44:02;20.20;;;18.27;;
31808;SDS011;18379;48.208;-1.518;2024-02-15T05:49:10;19.07;;;17.77;;
31808;SDS011;18379;48.208;-1.518;2024-02-15T05:54:17;19.47;;;18.23;;
31808;SDS011;18379;48.208;-1.518;2024-02-15T05:59:19;19.60;;;17.97;;
31808;SDS011;18379;48.208;-1.518;2024-02-15T06:04:20;22.00;;;20.27;;
31808;SDS011;18379;48.208;-1.518;2024-02-15T06:09:23;20.57;;;19.03;;
31808;SDS011;18379;48.208;-1.518;2024-02-15T06:14:26;19.30;;;17.70;;
31808;SDS011;18379;48.208;-1.518;2024-02-15T06:19:27;19.93;;;18.50;;
31808;SDS011;18379;48.208;-1.518;2024-02-15T06:24:28;19.10;;;17.80;;
31808;SDS011;18379;48.208;-1.518;2024-02-15T06:29:29;19.17;;;17.87;;
31808;SDS011;18379;48.208;-1.518;2024-02-15T06:34:48;20.20;;;18.60;;
31808;SDS011;18379;48.208;-1.518;2024-02-15T06:40:08;18.70;;;17.40;;
31808;SDS011;18379;48.208;-1.518;2024-02-15T06:45:10;19.33;;;18.00;;
31808;SDS011;18379;48.208;-1.518;2024-02-15T06:50:13;18.80;;;17.60;;
31808;SDS011;18379;48.208;-1.518;2024-02-15T06:55:14;18.60;;;17.20;;
31808;SDS011;18379;48.208;-1.518;2024-02-15T07:00:15;18.97;;;17.63;;
31808;SDS011;18379;48.208;-1.518;2024-02-15T07:05:15;18.50;;;17.07;;
31808;SDS011;18379;48.208;-1.518;2024-02-15T07:10:17;18.80;;;17.27;;
31808;SDS011;18379;48.208;-1.518;2024-02-15T07:15:17;19.83;;;18.17;;
31808;SDS011;18379;48.208;-1.518;2024-02-15T07:20:18;19.20;;;17.67;;
31808;SDS011;18379;48.208;-1.518;2024-02-15T07:25:19;18.90;;;17.40;;
31808;SDS011;18379;48.208;-1.518;2024-02-15T07:30:20;18.67;;;17.30;;
31808;SDS011;18379;48.208;-1.518;2024-02-15T07:35:20;19.33;;;17.77;;
31808;SDS011;18379;48.208;-1.518;2024-02-15T07:40:24;18.37;;;16.97;;
31808;SDS011;18379;48.208;-1.518;2024-02-15T07:45:28;19.47;;;18.07;;
31808;SDS011;18379;48.208;-1.518;2024-02-15T07:50:29;19.20;;;17.80;;
31808;SDS011;18379;48.208;-1.518;2024-02-15T07:55:31;18.43;;;17.00;;
31808;SDS011;18379;48.208;-1.518;2024-02-15T08:00:31;18.23;;;17.00;;
31808;SDS011;18379;48.208;-1.518;2024-02-15T08:05:32;18.53;;;17.23;;
31808;SDS011;18379;48.208;-1.518;2024-02-15T08:10:33;18.23;;;17.00;;
31808;SDS011;18379;48.208;-1.518;2024-02-15T08:15:33;17.90;;;16.50;;
31808;SDS011;18379;48.208;-1.518;2024-02-15T08:20:34;17.93;;;16.70;;
31808;SDS011;18379;48.208;-1.518;2024-02-15T08:25:35;19.87;;;18.03;;
31808;SDS011;18379;48.208;-1.518;2024-02-15T08:30:39;18.03;;;16.77;;
31808;SDS011;18379;48.208;-1.518;2024-02-15T08:35:41;19.00;;;17.53;;
31808;SDS011;18379;48.208;-1.518;2024-02-15T08:40:42;18.57;;;17.27;;
31808;SDS011;18379;48.208;-1.518;2024-02-15T08:45:44;19.73;;;18.20;;
31808;SDS011;18379;48.208;-1.518;2024-02-15T08:50:45;19.13;;;17.83;;
31808;SDS011;18379;48.208;-1.518;2024-02-15T08:55:45;19.10;;;17.70;;
31808;SDS011;18379;48.208;-1.518;2024-02-15T09:00:46;19.37;;;18.07;;
31808;SDS011;18379;48.208;-1.518;2024-02-15T09:05:47;20.37;;;18.97;;
31808;SDS011;18379;48.208;-1.518;2024-02-15T09:10:51;20.03;;;18.73;;
31808;SDS011;18379;48.208;-1.518;2024-02-15T09:15:52;19.80;;;18.30;;
31808;SDS011;18379;48.208;-1.518;2024-02-15T09:20:53;20.53;;;19.23;;
31808;SDS011;18379;48.208;-1.518;2024-02-15T09:25:55;20.00;;;18.63;;
31808;SDS011;18379;48.208;-1.518;2024-02-15T09:30:56;20.37;;;18.73;;
31808;SDS011;18379;48.208;-1.518;2024-02-15T09:35:59;20.70;;;19.20;;
31808;SDS011;18379;48.208;-1.518;2024-02-15T09:41:01;20.10;;;18.53;;
31808;SDS011;18379;48.208;-1.518;2024-02-15T09:46:02;19.57;;;18.27;;
31808;SDS011;18379;48.208;-1.518;2024-02-15T09:51:04;20.10;;;18.70;;
31808;SDS011;18379;48.208;-1.518;2024-02-15T09:56:07;20.37;;;18.97;;
31808;SDS011;18379;48.208;-1.518;2024-02-15T10:01:08;20.07;;;18.67;;
31808;SDS011;18379;48.208;-1.518;2024-02-15T10:06:10;20.83;;;19.40;;
31808;SDS011;18379;48.208;-1.518;2024-02-15T10:11:11;20.50;;;19.03;;
31808;SDS011;18379;48.208;-1.518;2024-02-15T10:16:16;21.27;;;19.87;;
31808;SDS011;18379;48.208;-1.518;2024-02-15T10:21:24;21.27;;;19.77;;
31808;SDS011;18379;48.208;-1.518;2024-02-15T10:26:27;20.90;;;19.53;;
31808;SDS011;18379;48.208;-1.518;2024-02-15T10:31:29;20.10;;;18.80;;
31808;SDS011;18379;48.208;-1.518;2024-02-15T10:36:29;20.37;;;19.00;;
31808;SDS011;18379;48.208;-1.518;2024-02-15T10:41:32;20.20;;;18.70;;
31808;SDS011;18379;48.208;-1.518;2024-02-15T10:46:36;20.40;;;18.97;;
31808;SDS011;18379;48.208;-1.518;2024-02-15T10:51:36;21.20;;;19.60;;
31808;SDS011;18379;48.208;-1.518;2024-02-15T10:56:43;20.30;;;19.00;;
31808;SDS011;18379;48.208;-1.518;2024-02-15T11:01:46;20.87;;;19.57;;
31808;SDS011;18379;48.208;-1.518;2024-02-15T11:06:50;21.33;;;19.83;;
31808;SDS011;18379;48.208;-1.518;2024-02-15T11:11:54;22.43;;;20.70;;
31808;SDS011;18379;48.208;-1.518;2024-02-15T11:16:56;21.23;;;19.63;;
31808;SDS011;18379;48.208;-1.518;2024-02-15T11:21:57;22.57;;;21.00;;
31808;SDS011;18379;48.208;-1.518;2024-02-15T11:26:59;22.87;;;21.20;;
31808;SDS011;18379;48.208;-1.518;2024-02-15T11:32:33;23.10;;;21.40;;
31808;SDS011;18379;48.208;-1.518;2024-02-15T11:43:09;22.47;;;20.97;;
31808;SDS011;18379;48.208;-1.518;2024-02-15T11:48:30;23.53;;;21.73;;
31808;SDS011;18379;48.208;-1.518;2024-02-15T11:53:31;22.63;;;21.07;;
31808;SDS011;18379;48.208;-1.518;2024-02-15T11:58:32;23.13;;;21.63;;
31808;SDS011;18379;48.208;-1.518;2024-02-15T12:03:42;23.13;;;21.47;;
31808;SDS011;18379;48.208;-1.518;2024-02-15T12:09:01;22.80;;;21.03;;
31808;SDS011;18379;48.208;-1.518;2024-02-15T12:14:21;22.10;;;20.77;;
31808;SDS011;18379;48.208;-1.518;2024-02-15T12:19:40;22.07;;;20.47;;
31808;SDS011;18379;48.208;-1.518;2024-02-15T12:24:41;22.27;;;20.73;;
31808;SDS011;18379;48.208;-1.518;2024-02-15T12:29:41;22.33;;;20.73;;
31808;SDS011;18379;48.208;-1.518;2024-02-15T12:34:42;22.57;;;21.07;;
31808;SDS011;18379;48.208;-1.518;2024-02-15T12:39:43;21.50;;;20.03;;
31808;SDS011;18379;48.208;-1.518;2024-02-15T12:44:44;21.90;;;20.40;;
31808;SDS011;18379;48.208;-1.518;2024-02-15T12:49:48;22.50;;;20.90;;
31808;SDS011;18379;48.208;-1.518;2024-02-15T12:55:05;23.03;;;21.50;;
31808;SDS011;18379;48.208;-1.518;2024-02-15T13:00:08;22.27;;;20.77;;
31808;SDS011;18379;48.208;-1.518;2024-02-15T13:05:19;22.97;;;21.37;;
31808;SDS011;18379;48.208;-1.518;2024-02-15T13:10:22;22.37;;;20.60;;
31808;SDS011;18379;48.208;-1.518;2024-02-15T13:15:23;21.67;;;20.03;;
31808;SDS011;18379;48.208;-1.518;2024-02-15T13:20:27;22.57;;;21.00;;
31808;SDS011;18379;48.208;-1.518;2024-02-15T13:25:35;23.00;;;21.40;;
31808;SDS011;18379;48.208;-1.518;2024-02-15T13:30:36;22.97;;;21.27;;
31808;SDS011;18379;48.208;-1.518;2024-02-15T13:35:37;22.97;;;21.43;;
31808;SDS011;18379;48.208;-1.518;2024-02-15T13:40:37;23.20;;;21.60;;
31808;SDS011;18379;48.208;-1.518;2024-02-15T13:45:39;23.60;;;21.80;;
31808;SDS011;18379;48.208;-1.518;2024-02-15T13:50:41;23.73;;;22.03;;
31808;SDS011;18379;48.208;-1.518;2024-02-15T13:55:42;24.53;;;22.93;;
31808;SDS011;18379;48.208;-1.518;2024-02-15T14:00:43;24.33;;;22.53;;
31808;SDS011;18379;48.208;-1.518;2024-02-15T14:05:44;24.17;;;22.47;;
31808;SDS011;18379;48.208;-1.518;2024-02-15T14:10:47;23.87;;;22.30;;
31808;SDS011;18379;48.208;-1.518;2024-02-15T14:15:48;24.33;;;22.53;;
31808;SDS011;18379;48.208;-1.518;2024-02-15T14:20:49;24.13;;;22.33;;
31808;SDS011;18379;48.208;-1.518;2024-02-15T14:25:50;24.13;;;22.33;;
31808;SDS011;18379;48.208;-1.518;2024-02-15T14:30:53;25.73;;;23.77;;
31808;SDS011;18379;48.208;-1.518;2024-02-15T14:36:12;24.40;;;22.70;;
31808;SDS011;18379;48.208;-1.518;2024-02-15T14:41:14;23.70;;;22.10;;
31808;SDS011;18379;48.208;-1.518;2024-02-15T14:46:16;23.50;;;22.00;;
31808;SDS011;18379;48.208;-1.518;2024-02-15T14:51:16;23.07;;;21.53;;
31808;SDS011;18379;48.208;-1.518;2024-02-15T14:56:20;23.47;;;21.90;;
31808;SDS011;18379;48.208;-1.518;2024-02-15T15:01:20;24.13;;;22.47;;
31808;SDS011;18379;48.208;-1.518;2024-02-15T15:06:21;23.43;;;21.97;;
31808;SDS011;18379;48.208;-1.518;2024-02-15T15:11:40;24.53;;;22.53;;
31808;SDS011;18379;48.208;-1.518;2024-02-15T15:16:59;24.47;;;22.77;;
31808;SDS011;18379;48.208;-1.518;2024-02-15T15:22:00;24.27;;;22.67;;
31808;SDS011;18379;48.208;-1.518;2024-02-15T15:27:01;24.80;;;22.90;;
31808;SDS011;18379;48.208;-1.518;2024-02-15T15:32:02;23.63;;;22.13;;
31808;SDS011;18379;48.208;-1.518;2024-02-15T15:37:02;23.40;;;21.80;;
31808;SDS011;18379;48.208;-1.518;2024-02-15T15:42:03;23.57;;;21.97;;
31808;SDS011;18379;48.208;-1.518;2024-02-15T15:47:07;24.13;;;22.37;;
31808;SDS011;18379;48.208;-1.518;2024-02-15T15:52:08;23.23;;;21.53;;
31808;SDS011;18379;48.208;-1.518;2024-02-15T15:57:09;23.47;;;21.90;;
31808;SDS011;18379;48.208;-1.518;2024-02-15T16:02:09;23.27;;;21.80;;
31808;SDS011;18379;48.208;-1.518;2024-02-15T16:07:10;23.97;;;22.30;;
31808;SDS011;18379;48.208;-1.518;2024-02-15T16:12:12;23.53;;;21.87;;
31808;SDS011;18379;48.208;-1.518;2024-02-15T16:17:13;22.93;;;21.63;;
31808;SDS011;18379;48.208;-1.518;2024-02-15T16:22:14;23.17;;;21.57;;
31808;SDS011;18379;48.208;-1.518;2024-02-15T16:27:15;23.60;;;21.90;;
31808;SDS011;18379;48.208;-1.518;2024-02-15T16:32:15;24.27;;;22.60;;
31808;SDS011;18379;48.208;-1.518;2024-02-15T16:37:16;22.80;;;21.30;;
31808;SDS011;18379;48.208;-1.518;2024-02-15T16:42:16;23.73;;;22.03;;
31808;SDS011;18379;48.208;-1.518;2024-02-15T16:47:18;32.57;;;29.67;;
31808;SDS011;18379;48.208;-1.518;2024-02-15T16:52:20;24.53;;;22.73;;
31808;SDS011;18379;48.208;-1.518;2024-02-15T16:57:21;23.47;;;21.83;;
31808;SDS011;18379;48.208;-1.518;2024-02-15T17:02:22;31.30;;;28.37;;
31808;SDS011;18379;48.208;-1.518;2024-02-15T17:07:24;24.37;;;22.77;;
31808;SDS011;18379;48.208;-1.518;2024-02-15T17:12:25;24.37;;;22.60;;
31808;SDS011;18379;48.208;-1.518;2024-02-15T17:17:28;25.23;;;22.97;;
31808;SDS011;18379;48.208;-1.518;2024-02-15T17:22:29;25.13;;;23.30;;
31808;SDS011;18379;48.208;-1.518;2024-02-15T17:27:29;25.07;;;23.00;;
31808;SDS011;18379;48.208;-1.518;2024-02-15T17:32:30;27.33;;;25.03;;
31808;SDS011;18379;48.208;-1.518;2024-02-15T17:37:30;31.63;;;28.80;;
31808;SDS011;18379;48.208;-1.518;2024-02-15T17:42:31;25.47;;;23.60;;
31808;SDS011;18379;48.208;-1.518;2024-02-15T17:47:32;24.67;;;22.97;;
31808;SDS011;18379;48.208;-1.518;2024-02-15T17:52:32;24.40;;;22.50;;
31808;SDS011;18379;48.208;-1.518;2024-02-15T17:57:33;33.50;;;30.40;;
31808;SDS011;18379;48.208;-1.518;2024-02-15T18:02:39;24.60;;;22.93;;
31808;SDS011;18379;48.208;-1.518;2024-02-15T18:07:40;25.03;;;23.23;;
31808;SDS011;18379;48.208;-1.518;2024-02-15T18:12:41;27.37;;;24.87;;
31808;SDS011;18379;48.208;-1.518;2024-02-15T18:17:42;23.47;;;21.90;;
31808;SDS011;18379;48.208;-1.518;2024-02-15T18:22:45;23.90;;;22.17;;
31808;SDS011;18379;48.208;-1.518;2024-02-15T18:27:45;22.87;;;21.43;;
31808;SDS011;18379;48.208;-1.518;2024-02-15T18:32:46;23.60;;;21.90;;
31808;SDS011;18379;48.208;-1.518;2024-02-15T18:37:47;24.20;;;22.30;;
31808;SDS011;18379;48.208;-1.518;2024-02-15T18:42:48;25.77;;;23.73;;
31808;SDS011;18379;48.208;-1.518;2024-02-15T18:47:49;24.57;;;22.83;;
31808;SDS011;18379;48.208;-1.518;2024-02-15T18:52:50;25.33;;;23.33;;
31808;SDS011;18379;48.208;-1.518;2024-02-15T18:57:50;24.13;;;22.40;;
31808;SDS011;18379;48.208;-1.518;2024-02-15T19:02:53;23.90;;;22.00;;
31808;SDS011;18379;48.208;-1.518;2024-02-15T19:07:53;24.20;;;22.17;;
31808;SDS011;18379;48.208;-1.518;2024-02-15T19:12:54;22.27;;;20.70;;
31808;SDS011;18379;48.208;-1.518;2024-02-15T19:17:55;23.13;;;21.30;;
31808;SDS011;18379;48.208;-1.518;2024-02-15T19:22:56;23.27;;;21.30;;
31808;SDS011;18379;48.208;-1.518;2024-02-15T19:27:56;24.23;;;22.30;;
31808;SDS011;18379;48.208;-1.518;2024-02-15T19:32:57;23.60;;;21.63;;
31808;SDS011;18379;48.208;-1.518;2024-02-15T19:37:58;25.27;;;23.53;;
31808;SDS011;18379;48.208;-1.518;2024-02-15T19:42:59;23.67;;;21.90;;
31808;SDS011;18379;48.208;-1.518;2024-02-15T19:48:00;23.20;;;21.60;;
31808;SDS011;18379;48.208;-1.518;2024-02-15T19:53:01;22.60;;;20.80;;
31808;SDS011;18379;48.208;-1.518;2024-02-15T19:58:04;24.50;;;22.30;;
31808;SDS011;18379;48.208;-1.518;2024-02-15T20:03:05;24.00;;;22.10;;
31808;SDS011;18379;48.208;-1.518;2024-02-15T20:08:06;22.43;;;20.80;;
31808;SDS011;18379;48.208;-1.518;2024-02-15T20:13:07;23.47;;;21.60;;
31808;SDS011;18379;48.208;-1.518;2024-02-15T20:18:08;21.70;;;20.10;;
31808;SDS011;18379;48.208;-1.518;2024-02-15T20:23:09;22.07;;;20.37;;
31808;SDS011;18379;48.208;-1.518;2024-02-15T20:28:11;22.10;;;20.70;;
31808;SDS011;18379;48.208;-1.518;2024-02-15T20:33:13;23.03;;;21.27;;
31808;SDS011;18379;48.208;-1.518;2024-02-15T20:38:27;23.80;;;21.90;;
31808;SDS011;18379;48.208;-1.518;2024-02-15T20:43:33;21.93;;;20.47;;
31808;SDS011;18379;48.208;-1.518;2024-02-15T20:48:36;22.30;;;20.57;;
31808;SDS011;18379;48.208;-1.518;2024-02-15T20:53:47;22.40;;;20.50;;
31808;SDS011;18379;48.208;-1.518;2024-02-15T20:58:51;22.93;;;21.17;;
31808;SDS011;18379;48.208;-1.518;2024-02-15T21:03:51;22.80;;;21.00;;
31808;SDS011;18379;48.208;-1.518;2024-02-15T21:08:56;22.30;;;20.73;;
31808;SDS011;18379;48.208;-1.518;2024-02-15T21:13:59;21.40;;;19.60;;
31808;SDS011;18379;48.208;-1.518;2024-02-15T21:19:00;22.70;;;21.00;;
31808;SDS011;18379;48.208;-1.518;2024-02-15T21:24:08;21.23;;;19.77;;
31808;SDS011;18379;48.208;-1.518;2024-02-15T21:29:09;22.07;;;20.13;;
31808;SDS011;18379;48.208;-1.518;2024-02-15T21:34:12;23.43;;;21.40;;
31808;SDS011;18379;48.208;-1.518;2024-02-15T21:39:13;22.63;;;20.40;;
31808;SDS011;18379;48.208;-1.518;2024-02-15T21:44:14;22.53;;;20.47;;
31808;SDS011;18379;48.208;-1.518;2024-02-15T21:49:14;22.27;;;20.17;;
31808;SDS011;18379;48.208;-1.518;2024-02-15T21:54:15;21.73;;;19.80;;
31808;SDS011;18379;48.208;-1.518;2024-02-15T21:59:16;22.90;;;20.50;;
31808;SDS011;18379;48.208;-1.518;2024-02-15T22:04:18;20.67;;;18.97;;
31808;SDS011;18379;48.208;-1.518;2024-02-15T22:09:19;21.60;;;19.57;;
31808;SDS011;18379;48.208;-1.518;2024-02-15T22:14:23;21.63;;;20.03;;
31808;SDS011;18379;48.208;-1.518;2024-02-15T22:19:27;23.13;;;21.07;;
31808;SDS011;18379;48.208;-1.518;2024-02-15T22:24:28;23.47;;;21.13;;
31808;SDS011;18379;48.208;-1.518;2024-02-15T22:29:28;27.77;;;25.03;;
31808;SDS011;18379;48.208;-1.518;2024-02-15T22:34:33;21.80;;;19.57;;
31808;SDS011;18379;48.208;-1.518;2024-02-15T22:39:33;23.00;;;21.00;;
31808;SDS011;18379;48.208;-1.518;2024-02-15T22:44:34;22.73;;;20.33;;
31808;SDS011;18379;48.208;-1.518;2024-02-15T22:49:35;23.57;;;21.23;;
31808;SDS011;18379;48.208;-1.518;2024-02-15T22:54:36;23.07;;;20.97;;
31808;SDS011;18379;48.208;-1.518;2024-02-15T22:59:40;24.60;;;22.10;;
31808;SDS011;18379;48.208;-1.518;2024-02-15T23:04:40;24.83;;;21.73;;
31808;SDS011;18379;48.208;-1.518;2024-02-15T23:09:41;24.17;;;21.13;;
31808;SDS011;18379;48.208;-1.518;2024-02-15T23:14:43;27.03;;;21.83;;
31808;SDS011;18379;48.208;-1.518;2024-02-15T23:19:44;26.40;;;21.40;;
31808;SDS011;18379;48.208;-1.518;2024-02-15T23:24:45;30.43;;;21.00;;
31808;SDS011;18379;48.208;-1.518;2024-02-15T23:29:45;26.07;;;19.90;;
31808;SDS011;18379;48.208;-1.518;2024-02-15T23:34:46;28.43;;;20.57;;
31808;SDS011;18379;48.208;-1.518;2024-02-15T23:39:47;33.83;;;20.10;;
31808;SDS011;18379;48.208;-1.518;2024-02-15T23:45:06;28.90;;;19.53;;
31808;SDS011;18379;48.208;-1.518;2024-02-15T23:50:08;34.60;;;20.27;;
31808;SDS011;18379;48.208;-1.518;2024-02-15T23:55:19;29.77;;;20.23;;
